This is the latest recevied weather packets stored in our database for station/object E20ZNR-1. If no packets are shown the sender has not sent any weather packets the latest 10 day(s).
| Time | Temp. | Humidity | Pressure | Rain* | Wind** | Luminosity | Snow |
|---|---|---|---|---|---|---|---|
| 1777648481 | 27.22° C | 99% | 1007 hPa | - | - | 0 W/m² | - |
| 1777647556 | 27.22° C | 99% | 1007 hPa | - | - | 0 W/m² | - |
| 1777646631 | 27.78° C | 99% | 1006 hPa | - | - | 0 W/m² | - |
| 1777645706 | 28.33° C | 99% | 1006 hPa | - | - | 0 W/m² | - |
| 1777644780 | 28.33° C | 99% | 1006 hPa | - | - | 0 W/m² | - |
| 1777643855 | 27.78° C | 99% | 1006 hPa | - | - | 0 W/m² | - |
| 1777642929 | 28.33° C | 99% | 1005 hPa | - | - | 0 W/m² | - |
| 1777642004 | 28.33° C | 99% | 1005 hPa | - | - | 0 W/m² | - |
| 1777641079 | 28.33° C | 99% | 1005 hPa | - | - | 0 W/m² | - |
| 1777640154 | 28.33° C | 99% | 1004 hPa | - | - | 0 W/m² | - |
| 1777639229 | 28.89° C | 99% | 1004 hPa | - | - | 0 W/m² | - |
| 1777638303 | 28.33° C | 99% | 1004 hPa | - | - | 0 W/m² | - |
| 1777637378 | 28.89° C | 99% | 1004 hPa | - | - | 0 W/m² | - |
| 1777636453 | 28.89° C | 98% | 1004 hPa | - | - | 0 W/m² | - |
| 1777635529 | 28.89° C | 97% | 1004 hPa | - | - | 0 W/m² | - |
| 1777634603 | 29.44° C | 92% | 1004 hPa | - | - | 0 W/m² | - |
| 1777633678 | 30° C | 91% | 1004 hPa | - | - | 0 W/m² | - |
| 1777632752 | 29.44° C | 93% | 1004 hPa | - | - | 0 W/m² | - |
| 1777631824 | 30° C | 86% | 1004 hPa | - | - | 0 W/m² | - |
| 1777630897 | 30° C | 87% | 1003 hPa | - | - | 0 W/m² | - |
| 1777629970 | 30° C | 79% | 1003 hPa | - | - | 0 W/m² | - |
| 1777629043 | 31.11° C | 74% | 1004 hPa | - | - | 0 W/m² | - |
| 1777628118 | 31.67° C | 67% | 1003 hPa | - | - | 0 W/m² | - |
| 1777627193 | 30.56° C | 74% | 1003 hPa | - | - | 0 W/m² | - |
| 1777626268 | 30° C | 72% | 1002 hPa | - | - | 0 W/m² | - |
* Rain since midnight (hover to see other rain measurements)
** Current wind speed in m/s (hover to see current wind gust speed)